createdAt,value
2018-06-19T00:00:40.330Z,61.89
2018-06-19T00:03:11.046Z,62.28
2018-06-19T00:05:41.737Z,62.91
2018-06-19T00:08:12.366Z,62.65
2018-06-19T00:10:43.007Z,62.81
2018-06-19T00:13:13.735Z,62.74
2018-06-19T00:15:44.397Z,63.03
2018-06-19T00:18:20.178Z,62.92
2018-06-19T00:20:51.843Z,63.21
2018-06-19T00:23:22.523Z,62.82
2018-06-19T00:25:53.180Z,63.63
2018-06-19T00:28:23.968Z,63.70
2018-06-19T00:30:54.622Z,63.97
2018-06-19T00:33:25.246Z,63.54
2018-06-19T00:35:56.055Z,63.45
2018-06-19T00:38:26.685Z,63.99
2018-06-19T00:40:57.382Z,64.06
2018-06-19T00:43:28.041Z,64.64
2018-06-19T00:45:59.856Z,64.52
2018-06-19T00:48:30.533Z,64.78
2018-06-19T00:51:01.332Z,64.83
2018-06-19T00:53:31.999Z,65.44
2018-06-19T00:56:19.451Z,65.46
2018-06-19T00:58:50.076Z,66.05
2018-06-19T01:01:20.853Z,65.93
2018-06-19T01:03:51.469Z,65.68
2018-06-19T01:06:22.099Z,65.79
2018-06-19T01:08:52.744Z,65.89
2018-06-19T01:11:23.364Z,66.30
2018-06-19T01:13:54.094Z,65.69
2018-06-19T01:16:24.735Z,66.26
2018-06-19T01:18:55.429Z,66.65
2018-06-19T01:21:26.084Z,66.10
2018-06-19T01:23:56.715Z,66.23
2018-06-19T01:26:27.371Z,66.77
2018-06-19T01:28:58.085Z,66.70
2018-06-19T01:31:28.743Z,66.60
2018-06-19T01:33:59.430Z,66.79
2018-06-19T01:36:30.125Z,67.01
2018-06-19T01:39:01.396Z,67.17
2018-06-19T01:41:32.012Z,67.18
2018-06-19T01:44:02.853Z,67.12
2018-06-19T01:46:33.454Z,67.13
2018-06-19T01:49:04.135Z,67.26
2018-06-19T01:51:34.420Z,67.48
2018-06-19T01:54:04.937Z,68.18
2018-06-19T01:56:35.771Z,67.50
2018-06-19T01:59:06.715Z,67.55
2018-06-19T02:01:37.349Z,67.90
2018-06-19T02:04:08.075Z,68.16
2018-06-19T02:06:38.719Z,67.53
2018-06-19T02:09:09.916Z,68.00
2018-06-19T02:11:40.549Z,67.51
2018-06-19T02:14:11.218Z,67.65
2018-06-19T02:16:41.855Z,67.72
2018-06-19T02:19:12.484Z,67.45
2018-06-19T02:21:43.228Z,67.90
2018-06-19T02:24:13.936Z,67.75
2018-06-19T02:26:44.559Z,67.38
2018-06-19T02:29:15.146Z,67.53
2018-06-19T02:31:45.818Z,67.64
2018-06-19T02:34:16.464Z,67.99
2018-06-19T02:36:47.659Z,67.79
2018-06-19T02:39:18.305Z,67.76
2018-06-19T02:41:48.962Z,67.84
2018-06-19T02:44:19.601Z,67.46
2018-06-19T02:46:50.300Z,67.69
2018-06-19T02:49:20.950Z,67.37
2018-06-19T02:51:51.845Z,67.32
2018-06-19T02:54:22.510Z,67.68
2018-06-19T02:56:53.196Z,67.74
2018-06-19T02:59:23.810Z,67.79
2018-06-19T03:01:54.506Z,67.83
2018-06-19T03:04:25.144Z,67.86
2018-06-19T03:06:55.951Z,67.91
2018-06-19T03:09:26.606Z,67.97
2018-06-19T03:11:57.253Z,67.79
2018-06-19T03:14:27.873Z,67.54
2018-06-19T03:16:58.529Z,67.54
2018-06-19T03:19:29.153Z,67.93
2018-06-19T03:21:59.834Z,67.66
2018-06-19T03:24:30.441Z,68.10
2018-06-19T03:27:01.096Z,67.77
2018-06-19T03:29:31.848Z,67.79
2018-06-19T03:32:02.537Z,67.44
2018-06-19T03:34:33.176Z,67.83
2018-06-19T03:37:03.844Z,67.71
2018-06-19T03:39:34.542Z,67.19
2018-06-19T03:42:05.252Z,67.74
2018-06-19T03:44:35.904Z,67.54
2018-06-19T03:47:06.717Z,67.57
2018-06-19T03:49:37.368Z,67.62
2018-06-19T03:52:08.165Z,68.14
2018-06-19T03:54:38.784Z,67.84
2018-06-19T03:57:09.424Z,68.10
2018-06-19T03:59:40.100Z,68.04
2018-06-19T04:02:10.794Z,68.41
2018-06-19T04:04:41.511Z,68.31
2018-06-19T04:07:12.160Z,68.13
2018-06-19T04:09:42.812Z,68.41
2018-06-19T04:12:13.492Z,68.61
2018-06-19T04:14:44.592Z,68.67
2018-06-19T04:17:22.885Z,68.39
2018-06-19T04:19:54.036Z,68.57
2018-06-19T04:22:25.155Z,68.91
2018-06-19T04:24:55.829Z,68.79
2018-06-19T04:27:26.674Z,68.95
2018-06-19T04:29:57.330Z,69.00
2018-06-19T04:32:27.991Z,68.50
2018-06-19T04:34:58.628Z,68.72
2018-06-19T04:37:29.248Z,69.28
2018-06-19T04:39:59.922Z,69.03
2018-06-19T04:42:30.595Z,69.06
2018-06-19T04:45:01.265Z,69.38
2018-06-19T04:47:31.932Z,69.35
2018-06-19T04:50:02.563Z,69.82
2018-06-19T04:52:33.172Z,70.06
2018-06-19T04:55:03.831Z,69.54
2018-06-19T04:57:34.524Z,69.67
2018-06-19T05:00:05.725Z,69.87
2018-06-19T05:02:36.539Z,70.21
2018-06-19T05:05:07.285Z,70.16
2018-06-19T05:07:37.905Z,69.96
2018-06-19T05:10:08.724Z,69.60
2018-06-19T05:12:39.466Z,69.66
2018-06-19T05:15:10.330Z,70.36
2018-06-19T05:17:40.950Z,70.23
2018-06-19T05:20:11.651Z,70.37
2018-06-19T05:22:42.301Z,70.16
2018-06-19T05:25:13.603Z,70.23
2018-06-19T05:27:44.204Z,69.64
2018-06-19T05:30:14.855Z,70.06
2018-06-19T05:32:45.642Z,70.55
2018-06-19T05:35:16.371Z,70.80
2018-06-19T05:37:47.105Z,70.61
2018-06-19T05:40:17.781Z,71.02
2018-06-19T05:42:48.510Z,70.89
2018-06-19T05:45:19.173Z,70.49
2018-06-19T05:47:49.890Z,71.11
2018-06-19T05:50:20.594Z,71.06
2018-06-19T05:52:51.276Z,71.36
2018-06-19T05:55:22.876Z,71.26
2018-06-19T05:57:53.524Z,71.87
2018-06-19T06:00:23.836Z,70.96
2018-06-19T06:02:54.391Z,71.03
2018-06-19T06:05:25.019Z,71.63
2018-06-19T06:07:55.707Z,71.16
2018-06-19T06:10:26.414Z,71.28
2018-06-19T06:12:57.087Z,71.62
2018-06-19T06:15:27.747Z,72.20
2018-06-19T06:17:58.428Z,72.25
2018-06-19T06:20:29.239Z,72.10
2018-06-19T06:22:59.891Z,71.84
2018-06-19T06:25:30.552Z,71.92
2018-06-19T06:28:01.247Z,72.02
2018-06-19T06:30:31.874Z,71.85
2018-06-19T06:33:02.525Z,72.17
2018-06-19T06:35:33.163Z,71.63
2018-06-19T06:38:03.849Z,71.50
2018-06-19T06:40:34.478Z,71.59
2018-06-19T06:43:05.209Z,71.24
2018-06-19T06:45:35.840Z,71.51
2018-06-19T06:48:06.520Z,71.71
2018-06-19T06:50:37.144Z,71.78
2018-06-19T06:53:07.903Z,72.05
2018-06-19T06:55:38.525Z,71.73
2018-06-19T06:58:09.261Z,71.79
2018-06-19T07:00:39.919Z,71.83
2018-06-19T07:03:10.639Z,72.21
2018-06-19T07:05:41.283Z,71.85
2018-06-19T07:08:12.090Z,72.24
2018-06-19T07:10:42.672Z,72.17
2018-06-19T07:13:13.422Z,72.11
2018-06-19T07:15:44.080Z,72.46
2018-06-19T07:18:14.823Z,72.39
2018-06-19T07:20:45.468Z,72.57
2018-06-19T07:23:16.127Z,73.13
2018-06-19T07:25:46.819Z,73.19
2018-06-19T07:28:17.469Z,73.45
2018-06-19T07:30:48.168Z,73.42
2018-06-19T07:33:18.868Z,73.80
2018-06-19T07:35:49.543Z,73.16
2018-06-19T07:38:20.180Z,72.74
2018-06-19T07:40:50.872Z,73.18
2018-06-19T07:43:21.508Z,72.80
2018-06-19T07:45:52.281Z,72.83
2018-06-19T07:48:22.929Z,72.94
2018-06-19T07:50:53.590Z,72.58
2018-06-19T07:53:24.221Z,72.46
2018-06-19T07:55:54.918Z,72.50
2018-06-19T07:58:25.538Z,72.79
2018-06-19T08:00:56.200Z,72.84
2018-06-19T08:03:26.811Z,73.15
2018-06-19T08:05:57.449Z,72.87
2018-06-19T08:08:28.814Z,72.83
2018-06-19T08:10:59.487Z,73.23
2018-06-19T08:13:30.237Z,73.60
2018-06-19T08:16:00.899Z,73.06
2018-06-19T08:18:31.602Z,73.05
2018-06-19T08:21:02.208Z,73.59
2018-06-19T08:23:32.872Z,73.18
2018-06-19T08:26:18.468Z,73.59
2018-06-19T08:28:49.170Z,73.89
2018-06-19T08:31:19.835Z,74.75
2018-06-19T08:33:50.460Z,74.70
2018-06-19T08:36:21.185Z,75.44
2018-06-19T08:38:51.815Z,75.71
2018-06-19T08:41:22.470Z,76.22
2018-06-19T08:43:53.125Z,76.25
2018-06-19T08:46:23.764Z,76.80
2018-06-19T08:48:54.511Z,77.27
2018-06-19T08:51:25.181Z,77.36
2018-06-19T08:53:55.885Z,77.47
2018-06-19T08:56:26.551Z,78.04
2018-06-19T08:58:57.198Z,77.29
2018-06-19T09:01:29.856Z,77.21
2018-06-19T09:04:00.726Z,77.07
2018-06-19T09:06:31.392Z,77.54
2018-06-19T09:09:01.791Z,77.73
2018-06-19T09:11:32.313Z,76.98
2018-06-19T09:14:03.019Z,77.42
2018-06-19T09:16:33.671Z,76.81
2018-06-19T09:19:04.332Z,77.40
2018-06-19T09:21:34.966Z,77.97
2018-06-19T09:24:05.658Z,78.08
2018-06-19T09:26:36.275Z,77.74
2018-06-19T09:29:07.073Z,77.73
2018-06-19T09:31:37.788Z,77.75
2018-06-19T09:34:08.447Z,77.34
2018-06-19T09:36:39.397Z,77.23
2018-06-19T09:39:12.312Z,77.20
2018-06-19T09:41:44.243Z,77.25
2018-06-19T09:44:15.032Z,76.57
2018-06-19T09:46:45.715Z,77.65
2018-06-19T09:49:16.418Z,78.58
2018-06-19T09:51:47.159Z,77.96
2018-06-19T09:54:17.793Z,77.84
2018-06-19T09:56:48.525Z,78.36
2018-06-19T09:59:19.315Z,77.94
2018-06-19T10:01:50.122Z,77.36
2018-06-19T10:04:20.908Z,75.93
2018-06-19T10:06:51.616Z,75.60
2018-06-19T10:09:22.478Z,75.84
2018-06-19T10:11:53.202Z,75.81
2018-06-19T10:14:23.898Z,74.47
2018-06-19T10:17:01.206Z,74.95
2018-06-19T10:19:31.904Z,74.66
2018-06-19T10:22:02.518Z,74.31
2018-06-19T10:24:33.463Z,74.91
2018-06-19T10:27:04.180Z,74.30
2018-06-19T10:29:34.904Z,73.96
2018-06-19T10:32:05.774Z,74.23
2018-06-19T10:34:36.421Z,73.96
2018-06-19T10:37:07.176Z,74.77
2018-06-19T10:39:37.832Z,73.87
2018-06-19T10:42:08.497Z,73.95
2018-06-19T10:44:39.150Z,73.54
2018-06-19T10:47:09.871Z,73.26
2018-06-19T10:49:40.581Z,73.29
2018-06-19T10:52:11.253Z,73.19
2018-06-19T10:54:41.888Z,72.53
2018-06-19T10:57:12.573Z,72.08
2018-06-19T10:59:43.220Z,71.79
2018-06-19T11:02:13.895Z,71.42
2018-06-19T11:04:44.556Z,71.65
2018-06-19T11:07:15.272Z,72.27
2018-06-19T11:09:45.907Z,71.87
2018-06-19T11:12:16.554Z,71.16
2018-06-19T11:14:47.181Z,70.56
2018-06-19T11:17:17.823Z,70.78
2018-06-19T11:19:49.002Z,70.05
2018-06-19T11:22:19.734Z,70.18
2018-06-19T11:24:50.356Z,70.34
2018-06-19T11:27:21.068Z,70.08
2018-06-19T11:29:51.708Z,69.26
2018-06-19T11:32:22.418Z,68.65
2018-06-19T11:34:53.136Z,68.59
2018-06-19T11:37:24.278Z,68.12
2018-06-19T11:39:54.988Z,68.15
2018-06-19T11:42:25.697Z,68.95
2018-06-19T11:44:56.350Z,68.58
2018-06-19T11:47:26.734Z,68.48
2018-06-19T11:49:57.307Z,67.89
2018-06-19T11:52:28.060Z,66.99
2018-06-19T11:54:58.760Z,67.49
2018-06-19T11:57:29.473Z,67.03
2018-06-19T12:00:00.140Z,67.22
2018-06-19T12:02:30.821Z,67.66
2018-06-19T12:05:01.481Z,67.77
2018-06-19T12:07:37.324Z,66.91
2018-06-19T12:10:08.406Z,66.73
2018-06-19T12:12:39.780Z,66.22
2018-06-19T12:15:10.513Z,66.18
2018-06-19T12:17:41.223Z,65.99
2018-06-19T12:20:11.973Z,65.94
2018-06-19T12:22:42.622Z,65.57
2018-06-19T12:25:13.271Z,65.68
2018-06-19T12:27:43.977Z,65.29
2018-06-19T12:30:14.651Z,64.74
2018-06-19T12:32:45.262Z,64.75
2018-06-19T12:35:15.935Z,64.76
2018-06-19T12:37:46.578Z,63.80
2018-06-19T12:40:17.216Z,63.56
2018-06-19T12:42:47.866Z,64.05
2018-06-19T12:45:18.515Z,62.90
2018-06-19T12:47:49.176Z,62.71
2018-06-19T12:50:38.740Z,63.20
2018-06-19T12:53:26.178Z,62.22
2018-06-19T12:56:15.327Z,62.31
2018-06-19T12:58:45.932Z,61.55
2018-06-19T13:01:16.611Z,60.91
2018-06-19T13:04:03.958Z,60.69
2018-06-19T13:06:37.016Z,60.19
2018-06-19T13:09:09.272Z,60.32
2018-06-19T13:11:39.932Z,59.92
2018-06-19T13:14:38.089Z,59.29
2018-06-19T13:17:25.580Z,59.04
2018-06-19T13:20:13.099Z,59.14
2018-06-19T13:22:43.764Z,58.54
2018-06-19T13:25:14.407Z,58.24
2018-06-19T13:27:45.091Z,58.59
2018-06-19T13:30:32.551Z,58.08
2018-06-19T13:33:03.226Z,59.22
2018-06-19T13:35:33.990Z,58.45
2018-06-19T13:38:04.669Z,58.79
2018-06-19T13:41:18.750Z,58.35
2018-06-19T13:44:08.066Z,57.23
2018-06-19T13:46:38.703Z,56.19
2018-06-19T13:49:09.492Z,56.24
2018-06-19T13:51:40.115Z,56.48
2018-06-19T13:54:10.858Z,56.85
2018-06-19T13:57:31.360Z,56.37
2018-06-19T14:00:04.033Z,55.26
2018-06-19T14:02:34.696Z,56.10
2018-06-19T14:05:06.153Z,54.02
2018-06-19T14:07:43.973Z,53.54
2018-06-19T14:10:31.685Z,53.95
2018-06-19T14:13:03.611Z,55.01
2018-06-19T14:15:37.740Z,55.82
2018-06-19T14:18:09.044Z,55.81
2018-06-19T14:20:40.244Z,55.34
2018-06-19T14:23:11.255Z,55.27
2018-06-19T14:25:42.072Z,54.97
2018-06-19T14:28:12.763Z,54.86
2018-06-19T14:30:43.429Z,54.59
2018-06-19T14:33:14.221Z,53.96
2018-06-19T14:35:44.739Z,54.76
2018-06-19T14:38:15.361Z,55.04
2018-06-19T14:40:46.021Z,55.29
2018-06-19T14:43:16.654Z,55.68
2018-06-19T14:45:47.381Z,55.47
2018-06-19T14:48:18.007Z,56.08
2018-06-19T14:50:48.667Z,56.36
2018-06-19T14:53:19.281Z,55.98
2018-06-19T14:55:49.959Z,55.82
2018-06-19T14:58:20.608Z,56.52
2018-06-19T15:00:51.257Z,56.46
2018-06-19T15:03:21.892Z,56.30
2018-06-19T15:05:52.547Z,56.03
2018-06-19T15:08:23.196Z,56.44
2018-06-19T15:10:53.863Z,56.37
2018-06-19T15:13:24.524Z,56.53
2018-06-19T15:15:55.238Z,57.44
2018-06-19T15:18:25.955Z,56.82
2018-06-19T15:20:56.587Z,56.85
2018-06-19T15:23:27.432Z,56.42
2018-06-19T15:25:58.092Z,56.42
2018-06-19T15:28:28.733Z,57.17
2018-06-19T15:30:59.348Z,56.65
2018-06-19T15:33:30.016Z,57.09
2018-06-19T15:36:00.644Z,57.56
2018-06-19T15:38:31.307Z,57.31
2018-06-19T15:41:01.997Z,57.21
2018-06-19T15:43:32.616Z,56.66
2018-06-19T15:46:03.266Z,57.06
2018-06-19T15:48:33.978Z,56.54
2018-06-19T15:51:04.581Z,56.94
2018-06-19T15:53:35.230Z,56.49
2018-06-19T15:56:05.853Z,56.53
2018-06-19T15:58:36.502Z,56.20
2018-06-19T16:01:07.235Z,55.71
2018-06-19T16:03:37.902Z,56.42
2018-06-19T16:06:08.580Z,55.95
2018-06-19T16:08:39.375Z,56.29
2018-06-19T16:11:10.066Z,56.55
2018-06-19T16:13:40.910Z,56.16
2018-06-19T16:16:11.636Z,56.66
2018-06-19T16:18:42.606Z,56.94
2018-06-19T16:21:13.289Z,56.72
2018-06-19T16:23:43.936Z,56.62
2018-06-19T16:26:14.626Z,56.70
2018-06-19T16:28:45.280Z,57.23
2018-06-19T16:31:15.962Z,57.35
2018-06-19T16:33:46.579Z,56.92
2018-06-19T16:36:17.300Z,57.27
2018-06-19T16:38:47.950Z,57.94
2018-06-19T16:41:18.640Z,57.75
2018-06-19T16:43:49.308Z,57.91
2018-06-19T16:46:19.994Z,57.83
2018-06-19T16:48:50.642Z,57.97
2018-06-19T16:51:21.280Z,58.40
2018-06-19T16:53:51.925Z,57.90
2018-06-19T16:56:22.600Z,58.06
2018-06-19T16:58:53.274Z,57.93
2018-06-19T17:01:24.024Z,57.46
2018-06-19T17:03:54.672Z,57.69
2018-06-19T17:06:25.344Z,58.13
2018-06-19T17:08:56.024Z,58.06
2018-06-19T17:11:26.669Z,58.58
2018-06-19T17:13:57.364Z,58.14
2018-06-19T17:16:28.029Z,58.21
2018-06-19T17:18:58.705Z,58.22
2018-06-19T17:21:29.393Z,58.13
2018-06-19T17:24:00.183Z,58.71
2018-06-19T17:26:30.864Z,59.08
2018-06-19T17:29:01.632Z,59.41
2018-06-19T17:31:32.241Z,59.63
2018-06-19T17:34:02.913Z,59.01
2018-06-19T17:36:33.533Z,59.04
2018-06-19T17:39:04.985Z,59.40
2018-06-19T17:41:35.759Z,59.19
2018-06-19T17:44:06.543Z,59.56
2018-06-19T17:46:37.186Z,59.96
2018-06-19T17:49:07.893Z,59.56
2018-06-19T17:51:38.535Z,59.35
2018-06-19T17:54:09.385Z,59.11
2018-06-19T17:56:40.083Z,59.52
2018-06-19T17:59:10.765Z,59.72
2018-06-19T18:01:41.422Z,60.14
2018-06-19T18:04:12.113Z,60.22
2018-06-19T18:06:42.738Z,60.72
2018-06-19T18:09:13.467Z,60.81
2018-06-19T18:11:44.125Z,60.85
2018-06-19T18:14:14.823Z,61.19
2018-06-19T18:16:45.455Z,61.53
2018-06-19T18:19:16.123Z,61.37
2018-06-19T18:21:46.894Z,61.72
2018-06-19T18:24:17.561Z,61.80
2018-06-19T18:26:48.323Z,61.71
2018-06-19T18:29:18.964Z,62.11
2018-06-19T18:31:49.800Z,62.28
2018-06-19T18:34:20.476Z,61.86
2018-06-19T18:36:51.164Z,61.74
2018-06-19T18:39:21.823Z,61.91
2018-06-19T18:41:52.526Z,62.01
2018-06-19T18:44:23.211Z,62.55
2018-06-19T18:46:53.872Z,62.17
2018-06-19T18:49:24.675Z,62.50
2018-06-19T18:51:55.469Z,62.34
2018-06-19T18:54:26.108Z,62.83
2018-06-19T18:56:56.800Z,62.58
2018-06-19T18:59:27.469Z,62.70
2018-06-19T19:01:58.196Z,62.43
2018-06-19T19:04:28.874Z,63.10
2018-06-19T19:06:59.544Z,63.33
2018-06-19T19:09:30.205Z,63.29
2018-06-19T19:12:00.860Z,63.31
2018-06-19T19:14:36.762Z,62.83
2018-06-19T19:17:12.969Z,62.97
2018-06-19T19:19:43.634Z,63.50
2018-06-19T19:22:14.292Z,63.17
2018-06-19T19:24:44.927Z,63.35
2018-06-19T19:27:20.703Z,63.74
2018-06-19T19:29:52.359Z,63.77
2018-06-19T19:32:23.002Z,64.17
2018-06-19T19:34:53.657Z,64.34
2018-06-19T19:37:29.469Z,64.24
2018-06-19T19:40:00.079Z,64.47
2018-06-19T19:42:30.721Z,64.70
2018-06-19T19:45:01.375Z,64.78
2018-06-19T19:47:37.168Z,64.50
2018-06-19T19:50:07.913Z,64.87
2018-06-19T19:53:09.258Z,65.05
2018-06-19T19:55:44.971Z,65.10
2018-06-19T19:58:20.920Z,65.56
2018-06-19T20:00:51.684Z,65.25
2018-06-19T20:03:53.338Z,65.19
2018-06-19T20:06:23.995Z,65.01
2018-06-19T20:08:54.613Z,65.33
2018-06-19T20:11:25.266Z,65.28
2018-06-19T20:13:56.016Z,65.58
2018-06-19T20:16:26.698Z,65.60
2018-06-19T20:18:57.565Z,65.35
2018-06-19T20:21:28.290Z,65.71
2018-06-19T20:23:58.962Z,65.51
2018-06-19T20:26:29.607Z,65.42
2018-06-19T20:29:00.241Z,65.77
2018-06-19T20:31:30.911Z,65.72
2018-06-19T20:34:01.623Z,65.18
2018-06-19T20:36:32.273Z,64.60
2018-06-19T20:39:03.008Z,64.95
2018-06-19T20:41:33.739Z,64.31
2018-06-19T20:44:04.653Z,64.26
2018-06-19T20:46:35.393Z,64.60
2018-06-19T20:49:06.131Z,64.23
2018-06-19T20:51:36.799Z,64.72
2018-06-19T20:54:07.511Z,64.83
2018-06-19T20:56:38.157Z,64.39
2018-06-19T20:59:08.887Z,64.32
2018-06-19T21:01:39.655Z,64.41
2018-06-19T21:04:10.542Z,64.48
2018-06-19T21:06:41.255Z,64.20
2018-06-19T21:09:11.931Z,64.47
2018-06-19T21:11:42.629Z,64.42
2018-06-19T21:14:13.324Z,64.94
2018-06-19T21:16:43.993Z,65.14
2018-06-19T21:19:14.684Z,65.28
2018-06-19T21:21:45.429Z,65.21
2018-06-19T21:24:16.152Z,66.00
2018-06-19T21:26:46.864Z,65.68
2018-06-19T21:29:17.531Z,65.83
2018-06-19T21:31:48.221Z,65.77
2018-06-19T21:34:18.873Z,65.83
2018-06-19T21:36:49.536Z,65.65
2018-06-19T21:39:20.172Z,65.99
2018-06-19T21:41:51.139Z,65.83
2018-06-19T21:44:21.786Z,65.79
2018-06-19T21:46:52.435Z,66.10
2018-06-19T21:49:23.112Z,66.28
2018-06-19T21:51:53.837Z,66.78
2018-06-19T21:54:24.554Z,66.36
2018-06-19T21:56:55.268Z,66.67
2018-06-19T21:59:26.040Z,66.54
2018-06-19T22:01:56.782Z,67.37
2018-06-19T22:04:27.503Z,66.79
2018-06-19T22:06:58.160Z,66.55
2018-06-19T22:09:29.140Z,66.82
2018-06-19T22:11:59.845Z,66.36
2018-06-19T22:14:30.488Z,66.05
2018-06-19T22:17:01.220Z,66.51
2018-06-19T22:19:31.898Z,67.08
2018-06-19T22:22:02.629Z,66.91
2018-06-19T22:24:33.281Z,66.75
2018-06-19T22:27:03.971Z,67.21
2018-06-19T22:29:34.684Z,66.58
2018-06-19T22:32:05.353Z,66.62
2018-06-19T22:34:36.013Z,66.98
2018-06-19T22:37:06.882Z,66.65
2018-06-19T22:39:37.529Z,67.00
2018-06-19T22:42:08.324Z,66.47
2018-06-19T22:44:39.078Z,67.55
2018-06-19T22:47:09.789Z,67.98
2018-06-19T22:49:40.467Z,67.88
2018-06-19T22:52:11.236Z,68.02
2018-06-19T22:54:41.899Z,67.69
2018-06-19T22:57:12.591Z,67.60
2018-06-19T22:59:43.291Z,67.35
2018-06-19T23:02:13.950Z,67.57
2018-06-19T23:04:44.663Z,67.67
2018-06-19T23:07:15.381Z,67.85
2018-06-19T23:09:46.045Z,67.60
2018-06-19T23:12:16.729Z,67.87
2018-06-19T23:14:47.364Z,67.88
2018-06-19T23:17:18.019Z,68.33
2018-06-19T23:19:48.675Z,68.41
2018-06-19T23:22:19.924Z,67.91
2018-06-19T23:24:50.619Z,67.32
2018-06-19T23:27:21.352Z,67.50
2018-06-19T23:29:52.126Z,68.19
2018-06-19T23:32:22.801Z,67.74
2018-06-19T23:34:53.496Z,67.44
2018-06-19T23:37:24.161Z,68.10
2018-06-19T23:39:54.927Z,69.01
2018-06-19T23:42:25.757Z,68.12
2018-06-19T23:44:56.567Z,68.39
2018-06-19T23:47:27.247Z,68.49
2018-06-19T23:49:57.973Z,68.63
2018-06-19T23:52:28.804Z,68.77
2018-06-19T23:54:59.544Z,68.70
2018-06-19T23:57:30.438Z,69.13
